sensor_id;sensor_type;location;lat;lon;timestamp;P1;durP1;ratioP1;P2;durP2;ratioP2
18711;SDS011;9485;49.386;8.674;2023-08-24T00:00:05;2.28;;;2.00;;
18711;SDS011;9485;49.386;8.674;2023-08-24T00:05:28;2.78;;;2.20;;
18711;SDS011;9485;49.386;8.674;2023-08-24T00:10:49;2.88;;;1.92;;
18711;SDS011;9485;49.386;8.674;2023-08-24T00:16:11;2.15;;;1.95;;
18711;SDS011;9485;49.386;8.674;2023-08-24T00:21:32;2.25;;;2.05;;
18711;SDS011;9485;49.386;8.674;2023-08-24T00:26:53;3.30;;;2.10;;
18711;SDS011;9485;49.386;8.674;2023-08-24T00:32:15;2.55;;;2.22;;
18711;SDS011;9485;49.386;8.674;2023-08-24T00:37:36;3.45;;;2.35;;
18711;SDS011;9485;49.386;8.674;2023-08-24T00:42:57;2.90;;;2.30;;
18711;SDS011;9485;49.386;8.674;2023-08-24T00:48:24;2.20;;;2.00;;
18711;SDS011;9485;49.386;8.674;2023-08-24T00:53:48;2.50;;;2.28;;
18711;SDS011;9485;49.386;8.674;2023-08-24T00:59:09;2.92;;;2.63;;
18711;SDS011;9485;49.386;8.674;2023-08-24T01:04:32;3.00;;;2.75;;
18711;SDS011;9485;49.386;8.674;2023-08-24T01:09:55;5.30;;;2.60;;
18711;SDS011;9485;49.386;8.674;2023-08-24T01:15:19;3.67;;;2.53;;
18711;SDS011;9485;49.386;8.674;2023-08-24T01:20:50;3.65;;;2.80;;
18711;SDS011;9485;49.386;8.674;2023-08-24T01:26:13;3.90;;;3.10;;
18711;SDS011;9485;49.386;8.674;2023-08-24T01:31:38;3.05;;;2.45;;
18711;SDS011;9485;49.386;8.674;2023-08-24T01:36:59;2.17;;;2.08;;
18711;SDS011;9485;49.386;8.674;2023-08-24T01:42:22;2.08;;;1.88;;
18711;SDS011;9485;49.386;8.674;2023-08-24T01:47:51;2.20;;;2.00;;
18711;SDS011;9485;49.386;8.674;2023-08-24T01:53:15;3.03;;;2.30;;
18711;SDS011;9485;49.386;8.674;2023-08-24T01:58:36;2.55;;;2.35;;
18711;SDS011;9485;49.386;8.674;2023-08-24T02:03:58;3.22;;;2.53;;
18711;SDS011;9485;49.386;8.674;2023-08-24T02:09:20;3.17;;;2.53;;
18711;SDS011;9485;49.386;8.674;2023-08-24T02:14:46;2.90;;;2.60;;
18711;SDS011;9485;49.386;8.674;2023-08-24T02:20:09;2.97;;;2.67;;
18711;SDS011;9485;49.386;8.674;2023-08-24T02:25:31;3.78;;;2.70;;
18711;SDS011;9485;49.386;8.674;2023-08-24T02:30:53;2.88;;;2.67;;
18711;SDS011;9485;49.386;8.674;2023-08-24T02:36:14;3.85;;;2.60;;
18711;SDS011;9485;49.386;8.674;2023-08-24T02:41:35;2.60;;;2.40;;
18711;SDS011;9485;49.386;8.674;2023-08-24T02:46:57;3.35;;;2.60;;
18711;SDS011;9485;49.386;8.674;2023-08-24T02:52:18;2.55;;;2.35;;
18711;SDS011;9485;49.386;8.674;2023-08-24T02:57:39;4.82;;;2.60;;
18711;SDS011;9485;49.386;8.674;2023-08-24T03:03:01;3.20;;;2.47;;
18711;SDS011;9485;49.386;8.674;2023-08-24T03:08:26;3.25;;;2.60;;
18711;SDS011;9485;49.386;8.674;2023-08-24T03:13:48;2.75;;;2.55;;
18711;SDS011;9485;49.386;8.674;2023-08-24T03:19:11;3.17;;;2.88;;
18711;SDS011;9485;49.386;8.674;2023-08-24T03:24:33;3.25;;;2.95;;
18711;SDS011;9485;49.386;8.674;2023-08-24T03:29:55;5.10;;;2.97;;
18711;SDS011;9485;49.386;8.674;2023-08-24T03:35:18;3.58;;;2.58;;
18711;SDS011;9485;49.386;8.674;2023-08-24T03:40:39;2.83;;;2.63;;
18711;SDS011;9485;49.386;8.674;2023-08-24T03:46:00;2.83;;;2.40;;
18711;SDS011;9485;49.386;8.674;2023-08-24T03:51:24;3.53;;;2.30;;
18711;SDS011;9485;49.386;8.674;2023-08-24T03:56:44;2.47;;;2.22;;
18711;SDS011;9485;49.386;8.674;2023-08-24T04:02:05;2.33;;;1.80;;
18711;SDS011;9485;49.386;8.674;2023-08-24T04:07:28;2.05;;;1.80;;
18711;SDS011;9485;49.386;8.674;2023-08-24T04:12:50;2.13;;;1.90;;
18711;SDS011;9485;49.386;8.674;2023-08-24T04:18:13;1.98;;;1.80;;
18711;SDS011;9485;49.386;8.674;2023-08-24T04:23:36;2.03;;;1.80;;
18711;SDS011;9485;49.386;8.674;2023-08-24T04:28:58;2.78;;;2.30;;
18711;SDS011;9485;49.386;8.674;2023-08-24T04:34:19;2.30;;;2.00;;
18711;SDS011;9485;49.386;8.674;2023-08-24T04:39:41;2.75;;;1.73;;
18711;SDS011;9485;49.386;8.674;2023-08-24T04:45:02;2.13;;;1.92;;
18711;SDS011;9485;49.386;8.674;2023-08-24T04:50:24;1.98;;;1.85;;
18711;SDS011;9485;49.386;8.674;2023-08-24T04:55:47;2.08;;;1.73;;
18711;SDS011;9485;49.386;8.674;2023-08-24T05:01:08;1.70;;;1.60;;
18711;SDS011;9485;49.386;8.674;2023-08-24T05:06:29;2.33;;;2.08;;
18711;SDS011;9485;49.386;8.674;2023-08-24T05:11:51;3.35;;;2.85;;
18711;SDS011;9485;49.386;8.674;2023-08-24T05:17:11;2.92;;;2.72;;
18711;SDS011;9485;49.386;8.674;2023-08-24T05:22:33;3.13;;;2.83;;
18711;SDS011;9485;49.386;8.674;2023-08-24T05:27:55;3.28;;;2.10;;
18711;SDS011;9485;49.386;8.674;2023-08-24T05:33:15;2.63;;;2.05;;
18711;SDS011;9485;49.386;8.674;2023-08-24T05:38:36;2.30;;;2.10;;
18711;SDS011;9485;49.386;8.674;2023-08-24T05:43:58;3.55;;;2.90;;
18711;SDS011;9485;49.386;8.674;2023-08-24T05:49:20;5.25;;;3.22;;
18711;SDS011;9485;49.386;8.674;2023-08-24T05:54:41;5.50;;;3.50;;
18711;SDS011;9485;49.386;8.674;2023-08-24T06:00:03;3.70;;;3.13;;
18711;SDS011;9485;49.386;8.674;2023-08-24T06:05:31;3.58;;;3.03;;
18711;SDS011;9485;49.386;8.674;2023-08-24T06:10:52;6.43;;;3.97;;
18711;SDS011;9485;49.386;8.674;2023-08-24T06:16:15;5.05;;;3.40;;
18711;SDS011;9485;49.386;8.674;2023-08-24T06:21:36;3.78;;;3.38;;
18711;SDS011;9485;49.386;8.674;2023-08-24T06:26:58;3.42;;;3.13;;
18711;SDS011;9485;49.386;8.674;2023-08-24T06:32:21;8.70;;;3.50;;
18711;SDS011;9485;49.386;8.674;2023-08-24T06:37:42;4.82;;;3.00;;
18711;SDS011;9485;49.386;8.674;2023-08-24T06:43:03;5.13;;;3.22;;
18711;SDS011;9485;49.386;8.674;2023-08-24T06:48:25;3.28;;;2.97;;
18711;SDS011;9485;49.386;8.674;2023-08-24T06:53:45;4.15;;;3.13;;
18711;SDS011;9485;49.386;8.674;2023-08-24T06:59:07;3.67;;;2.75;;
18711;SDS011;9485;49.386;8.674;2023-08-24T07:04:30;4.90;;;3.03;;
18711;SDS011;9485;49.386;8.674;2023-08-24T07:09:52;2.78;;;2.58;;
18711;SDS011;9485;49.386;8.674;2023-08-24T07:15:13;2.78;;;2.58;;
18711;SDS011;9485;49.386;8.674;2023-08-24T07:20:36;4.68;;;2.35;;
18711;SDS011;9485;49.386;8.674;2023-08-24T07:25:57;3.13;;;2.35;;
18711;SDS011;9485;49.386;8.674;2023-08-24T07:31:18;3.17;;;2.55;;
18711;SDS011;9485;49.386;8.674;2023-08-24T07:36:40;4.35;;;2.67;;
18711;SDS011;9485;49.386;8.674;2023-08-24T07:42:01;2.40;;;2.20;;
18711;SDS011;9485;49.386;8.674;2023-08-24T07:47:22;4.68;;;3.00;;
18711;SDS011;9485;49.386;8.674;2023-08-24T07:52:45;2.75;;;2.50;;
18711;SDS011;9485;49.386;8.674;2023-08-24T07:58:06;4.85;;;2.60;;
18711;SDS011;9485;49.386;8.674;2023-08-24T08:03:27;2.90;;;2.67;;
18711;SDS011;9485;49.386;8.674;2023-08-24T08:08:50;2.55;;;2.35;;
18711;SDS011;9485;49.386;8.674;2023-08-24T08:14:12;3.78;;;2.97;;
18711;SDS011;9485;49.386;8.674;2023-08-24T08:19:32;3.42;;;3.13;;
18711;SDS011;9485;49.386;8.674;2023-08-24T08:24:55;3.47;;;2.65;;
18711;SDS011;9485;49.386;8.674;2023-08-24T08:30:18;4.53;;;3.15;;
18711;SDS011;9485;49.386;8.674;2023-08-24T08:35:40;4.00;;;2.67;;
18711;SDS011;9485;49.386;8.674;2023-08-24T08:41:03;3.85;;;2.70;;
18711;SDS011;9485;49.386;8.674;2023-08-24T08:46:24;2.92;;;2.28;;
18711;SDS011;9485;49.386;8.674;2023-08-24T08:51:47;3.13;;;2.03;;
18711;SDS011;9485;49.386;8.674;2023-08-24T08:57:11;2.92;;;1.90;;
18711;SDS011;9485;49.386;8.674;2023-08-24T09:02:36;4.82;;;2.03;;
18711;SDS011;9485;49.386;8.674;2023-08-24T09:07:57;3.28;;;1.90;;
18711;SDS011;9485;49.386;8.674;2023-08-24T09:13:23;4.53;;;2.03;;
18711;SDS011;9485;49.386;8.674;2023-08-24T09:18:45;2.63;;;1.80;;
18711;SDS011;9485;49.386;8.674;2023-08-24T09:24:07;2.58;;;1.83;;
18711;SDS011;9485;49.386;8.674;2023-08-24T09:29:30;2.53;;;1.90;;
18711;SDS011;9485;49.386;8.674;2023-08-24T09:34:58;2.45;;;1.55;;
18711;SDS011;9485;49.386;8.674;2023-08-24T09:40:25;2.47;;;1.67;;
18711;SDS011;9485;49.386;8.674;2023-08-24T09:45:50;2.10;;;1.60;;
18711;SDS011;9485;49.386;8.674;2023-08-24T09:51:13;1.52;;;1.42;;
18711;SDS011;9485;49.386;8.674;2023-08-24T09:56:35;1.77;;;1.60;;
18711;SDS011;9485;49.386;8.674;2023-08-24T10:01:58;1.98;;;1.70;;
18711;SDS011;9485;49.386;8.674;2023-08-24T10:07:22;1.55;;;1.45;;
18711;SDS011;9485;49.386;8.674;2023-08-24T10:12:47;4.97;;;1.80;;
18711;SDS011;9485;49.386;8.674;2023-08-24T10:18:14;1.63;;;1.52;;
18711;SDS011;9485;49.386;8.674;2023-08-24T10:23:36;2.40;;;1.73;;
18711;SDS011;9485;49.386;8.674;2023-08-24T10:28:58;2.20;;;2.00;;
18711;SDS011;9485;49.386;8.674;2023-08-24T10:34:21;3.92;;;2.25;;
18711;SDS011;9485;49.386;8.674;2023-08-24T10:39:43;4.38;;;2.33;;
18711;SDS011;9485;49.386;8.674;2023-08-24T10:45:05;2.33;;;2.08;;
18711;SDS011;9485;49.386;8.674;2023-08-24T10:50:29;2.72;;;2.00;;
18711;SDS011;9485;49.386;8.674;2023-08-24T10:55:50;2.58;;;1.95;;
18711;SDS011;9485;49.386;8.674;2023-08-24T11:01:31;2.83;;;2.00;;
18711;SDS011;9485;49.386;8.674;2023-08-24T11:06:54;2.30;;;1.73;;
18711;SDS011;9485;49.386;8.674;2023-08-24T11:12:18;3.75;;;2.30;;
18711;SDS011;9485;49.386;8.674;2023-08-24T11:17:38;3.13;;;2.40;;
18711;SDS011;9485;49.386;8.674;2023-08-24T11:23:00;4.93;;;2.20;;
18711;SDS011;9485;49.386;8.674;2023-08-24T11:28:24;3.85;;;2.25;;
18711;SDS011;9485;49.386;8.674;2023-08-24T11:33:46;3.15;;;2.25;;
18711;SDS011;9485;49.386;8.674;2023-08-24T11:39:13;2.70;;;2.08;;
18711;SDS011;9485;49.386;8.674;2023-08-24T11:44:44;4.10;;;2.72;;
18711;SDS011;9485;49.386;8.674;2023-08-24T11:50:07;2.40;;;2.20;;
18711;SDS011;9485;49.386;8.674;2023-08-24T11:55:30;2.30;;;1.95;;
18711;SDS011;9485;49.386;8.674;2023-08-24T12:00:51;3.45;;;2.47;;
18711;SDS011;9485;49.386;8.674;2023-08-24T12:06:13;4.32;;;2.88;;
18711;SDS011;9485;49.386;8.674;2023-08-24T12:11:37;2.67;;;2.47;;
18711;SDS011;9485;49.386;8.674;2023-08-24T12:16:58;2.55;;;2.35;;
18711;SDS011;9485;49.386;8.674;2023-08-24T12:22:26;3.03;;;2.38;;
18711;SDS011;9485;49.386;8.674;2023-08-24T12:27:50;2.95;;;2.45;;
18711;SDS011;9485;49.386;8.674;2023-08-24T12:33:22;2.35;;;2.15;;
18711;SDS011;9485;49.386;8.674;2023-08-24T12:38:44;2.58;;;2.05;;
18711;SDS011;9485;49.386;8.674;2023-08-24T12:44:07;2.58;;;2.05;;
18711;SDS011;9485;49.386;8.674;2023-08-24T12:49:28;2.47;;;2.25;;
18711;SDS011;9485;49.386;8.674;2023-08-24T12:54:49;2.58;;;2.28;;
18711;SDS011;9485;49.386;8.674;2023-08-24T13:00:15;2.50;;;2.30;;
18711;SDS011;9485;49.386;8.674;2023-08-24T13:05:36;10.25;;;2.72;;
18711;SDS011;9485;49.386;8.674;2023-08-24T13:10:57;3.95;;;2.53;;
18711;SDS011;9485;49.386;8.674;2023-08-24T13:16:19;2.65;;;2.45;;
18711;SDS011;9485;49.386;8.674;2023-08-24T13:21:40;3.28;;;2.47;;
18711;SDS011;9485;49.386;8.674;2023-08-24T13:27:01;3.40;;;2.40;;
18711;SDS011;9485;49.386;8.674;2023-08-24T13:32:24;2.63;;;2.42;;
18711;SDS011;9485;49.386;8.674;2023-08-24T13:37:45;3.28;;;2.40;;
18711;SDS011;9485;49.386;8.674;2023-08-24T13:43:07;2.83;;;2.30;;
18711;SDS011;9485;49.386;8.674;2023-08-24T13:48:29;3.10;;;2.80;;
18711;SDS011;9485;49.386;8.674;2023-08-24T13:53:52;2.47;;;2.28;;
18711;SDS011;9485;49.386;8.674;2023-08-24T13:59:13;2.78;;;2.58;;
18711;SDS011;9485;49.386;8.674;2023-08-24T14:04:36;4.90;;;2.67;;
18711;SDS011;9485;49.386;8.674;2023-08-24T14:09:58;2.50;;;2.30;;
18711;SDS011;9485;49.386;8.674;2023-08-24T14:15:18;2.50;;;2.30;;
18711;SDS011;9485;49.386;8.674;2023-08-24T14:20:44;2.75;;;2.55;;
18711;SDS011;9485;49.386;8.674;2023-08-24T14:26:05;4.50;;;2.88;;
18711;SDS011;9485;49.386;8.674;2023-08-24T14:31:26;4.00;;;2.72;;
18711;SDS011;9485;49.386;8.674;2023-08-24T14:36:50;3.45;;;2.60;;
18711;SDS011;9485;49.386;8.674;2023-08-24T14:42:12;3.22;;;2.70;;
18711;SDS011;9485;49.386;8.674;2023-08-24T14:47:32;3.63;;;2.92;;
18711;SDS011;9485;49.386;8.674;2023-08-24T14:52:54;6.93;;;3.42;;
18711;SDS011;9485;49.386;8.674;2023-08-24T14:58:15;3.55;;;2.72;;
18711;SDS011;9485;49.386;8.674;2023-08-24T15:03:38;3.30;;;2.55;;
18711;SDS011;9485;49.386;8.674;2023-08-24T15:09:01;3.60;;;2.78;;
18711;SDS011;9485;49.386;8.674;2023-08-24T15:14:22;4.72;;;2.47;;
18711;SDS011;9485;49.386;8.674;2023-08-24T15:19:43;4.05;;;1.92;;
18711;SDS011;9485;49.386;8.674;2023-08-24T15:25:06;3.28;;;2.22;;
18711;SDS011;9485;49.386;8.674;2023-08-24T15:30:27;2.72;;;2.08;;
18711;SDS011;9485;49.386;8.674;2023-08-24T15:35:48;2.60;;;2.05;;
18711;SDS011;9485;49.386;8.674;2023-08-24T15:41:10;1.98;;;1.80;;
18711;SDS011;9485;49.386;8.674;2023-08-24T15:46:31;3.10;;;2.03;;
18711;SDS011;9485;49.386;8.674;2023-08-24T15:51:52;2.30;;;2.08;;
18711;SDS011;9485;49.386;8.674;2023-08-24T15:57:15;3.85;;;2.80;;
18711;SDS011;9485;49.386;8.674;2023-08-24T16:02:37;4.47;;;2.75;;
18711;SDS011;9485;49.386;8.674;2023-08-24T16:07:58;4.25;;;2.88;;
18711;SDS011;9485;49.386;8.674;2023-08-24T16:13:20;3.20;;;2.90;;
18711;SDS011;9485;49.386;8.674;2023-08-24T16:18:40;2.60;;;2.40;;
18711;SDS011;9485;49.386;8.674;2023-08-24T16:24:01;5.05;;;2.60;;
18711;SDS011;9485;49.386;8.674;2023-08-24T16:29:24;3.85;;;2.83;;
18711;SDS011;9485;49.386;8.674;2023-08-24T16:34:46;3.30;;;2.88;;
18711;SDS011;9485;49.386;8.674;2023-08-24T16:40:07;5.03;;;2.85;;
18711;SDS011;9485;49.386;8.674;2023-08-24T16:45:31;3.47;;;3.00;;
18711;SDS011;9485;49.386;8.674;2023-08-24T16:50:54;5.15;;;2.75;;
18711;SDS011;9485;49.386;8.674;2023-08-24T16:56:16;4.45;;;2.90;;
18711;SDS011;9485;49.386;8.674;2023-08-24T17:01:38;3.65;;;3.20;;
18711;SDS011;9485;49.386;8.674;2023-08-24T17:06:59;3.58;;;2.97;;
18711;SDS011;9485;49.386;8.674;2023-08-24T17:12:20;4.82;;;2.70;;
18711;SDS011;9485;49.386;8.674;2023-08-24T17:17:44;3.90;;;3.20;;
18711;SDS011;9485;49.386;8.674;2023-08-24T17:23:06;3.25;;;2.95;;
18711;SDS011;9485;49.386;8.674;2023-08-24T17:28:27;3.88;;;3.03;;
18711;SDS011;9485;49.386;8.674;2023-08-24T17:33:49;5.63;;;3.47;;
18711;SDS011;9485;49.386;8.674;2023-08-24T17:39:10;5.65;;;3.50;;
18711;SDS011;9485;49.386;8.674;2023-08-24T17:44:31;4.22;;;3.83;;
18711;SDS011;9485;49.386;8.674;2023-08-24T17:49:54;4.00;;;3.08;;
18711;SDS011;9485;49.386;8.674;2023-08-24T17:55:15;3.83;;;3.35;;
18711;SDS011;9485;49.386;8.674;2023-08-24T18:00:36;4.35;;;3.55;;
18711;SDS011;9485;49.386;8.674;2023-08-24T18:05:57;3.65;;;3.33;;
18711;SDS011;9485;49.386;8.674;2023-08-24T18:11:18;4.40;;;3.90;;
18711;SDS011;9485;49.386;8.674;2023-08-24T18:16:39;5.43;;;3.70;;
18711;SDS011;9485;49.386;8.674;2023-08-24T18:22:01;4.90;;;3.85;;
18711;SDS011;9485;49.386;8.674;2023-08-24T18:27:21;4.07;;;3.78;;
18711;SDS011;9485;49.386;8.674;2023-08-24T18:32:44;4.00;;;3.65;;
18711;SDS011;9485;49.386;8.674;2023-08-24T18:38:08;4.63;;;4.18;;
18711;SDS011;9485;49.386;8.674;2023-08-24T18:43:29;4.72;;;3.85;;
18711;SDS011;9485;49.386;8.674;2023-08-24T18:48:50;4.57;;;4.15;;
18711;SDS011;9485;49.386;8.674;2023-08-24T18:54:12;5.30;;;4.28;;
18711;SDS011;9485;49.386;8.674;2023-08-24T18:59:32;4.78;;;4.25;;
18711;SDS011;9485;49.386;8.674;2023-08-24T19:04:53;5.40;;;4.03;;
18711;SDS011;9485;49.386;8.674;2023-08-24T19:10:15;6.30;;;4.25;;
18711;SDS011;9485;49.386;8.674;2023-08-24T19:15:36;4.55;;;3.85;;
18711;SDS011;9485;49.386;8.674;2023-08-24T19:20:56;4.55;;;4.07;;
18711;SDS011;9485;49.386;8.674;2023-08-24T19:26:19;4.15;;;3.75;;
18711;SDS011;9485;49.386;8.674;2023-08-24T19:31:40;4.18;;;3.70;;
18711;SDS011;9485;49.386;8.674;2023-08-24T19:37:02;5.70;;;4.00;;
18711;SDS011;9485;49.386;8.674;2023-08-24T19:42:24;4.75;;;4.35;;
18711;SDS011;9485;49.386;8.674;2023-08-24T19:47:46;4.75;;;4.18;;
18711;SDS011;9485;49.386;8.674;2023-08-24T19:53:06;5.30;;;4.80;;
18711;SDS011;9485;49.386;8.674;2023-08-24T19:58:28;5.00;;;4.32;;
18711;SDS011;9485;49.386;8.674;2023-08-24T20:03:49;5.38;;;4.88;;
18711;SDS011;9485;49.386;8.674;2023-08-24T20:09:11;5.32;;;4.75;;
18711;SDS011;9485;49.386;8.674;2023-08-24T20:14:34;5.38;;;4.57;;
18711;SDS011;9485;49.386;8.674;2023-08-24T20:19:55;5.40;;;4.93;;
18711;SDS011;9485;49.386;8.674;2023-08-24T20:25:17;5.82;;;5.30;;
18711;SDS011;9485;49.386;8.674;2023-08-24T20:30:40;6.03;;;5.47;;
18711;SDS011;9485;49.386;8.674;2023-08-24T20:36:00;6.25;;;5.65;;
18711;SDS011;9485;49.386;8.674;2023-08-24T20:41:23;5.55;;;4.97;;
18711;SDS011;9485;49.386;8.674;2023-08-24T20:46:45;6.22;;;5.53;;
18711;SDS011;9485;49.386;8.674;2023-08-24T20:52:06;6.80;;;5.88;;
18711;SDS011;9485;49.386;8.674;2023-08-24T20:57:26;9.07;;;5.85;;
18711;SDS011;9485;49.386;8.674;2023-08-24T21:02:48;5.97;;;5.38;;
18711;SDS011;9485;49.386;8.674;2023-08-24T21:08:09;5.68;;;5.18;;
18711;SDS011;9485;49.386;8.674;2023-08-24T21:13:30;6.30;;;5.72;;
18711;SDS011;9485;49.386;8.674;2023-08-24T21:18:52;6.13;;;5.53;;
18711;SDS011;9485;49.386;8.674;2023-08-24T21:24:13;7.43;;;5.35;;
18711;SDS011;9485;49.386;8.674;2023-08-24T21:29:34;6.25;;;5.32;;
18711;SDS011;9485;49.386;8.674;2023-08-24T21:34:59;5.65;;;5.10;;
18711;SDS011;9485;49.386;8.674;2023-08-24T21:40:22;5.50;;;5.00;;
18711;SDS011;9485;49.386;8.674;2023-08-24T21:45:43;5.72;;;5.05;;
18711;SDS011;9485;49.386;8.674;2023-08-24T21:51:05;5.30;;;4.85;;
18711;SDS011;9485;49.386;8.674;2023-08-24T21:56:27;5.30;;;4.72;;
18711;SDS011;9485;49.386;8.674;2023-08-24T22:01:48;5.30;;;4.82;;
18711;SDS011;9485;49.386;8.674;2023-08-24T22:07:10;5.68;;;5.18;;
18711;SDS011;9485;49.386;8.674;2023-08-24T22:12:32;6.35;;;5.05;;
18711;SDS011;9485;49.386;8.674;2023-08-24T22:17:53;5.38;;;4.88;;
18711;SDS011;9485;49.386;8.674;2023-08-24T22:23:15;5.88;;;5.05;;
18711;SDS011;9485;49.386;8.674;2023-08-24T22:28:38;5.53;;;5.03;;
18711;SDS011;9485;49.386;8.674;2023-08-24T22:33:59;5.65;;;5.10;;
18711;SDS011;9485;49.386;8.674;2023-08-24T22:39:22;5.68;;;4.57;;
18711;SDS011;9485;49.386;8.674;2023-08-24T22:44:42;8.27;;;5.82;;
18711;SDS011;9485;49.386;8.674;2023-08-24T22:50:03;5.72;;;5.22;;
18711;SDS011;9485;49.386;8.674;2023-08-24T22:55:28;5.25;;;4.75;;
18711;SDS011;9485;49.386;8.674;2023-08-24T23:00:48;5.63;;;4.88;;
18711;SDS011;9485;49.386;8.674;2023-08-24T23:06:11;5.30;;;4.78;;
18711;SDS011;9485;49.386;8.674;2023-08-24T23:11:34;5.22;;;4.72;;
18711;SDS011;9485;49.386;8.674;2023-08-24T23:16:55;4.97;;;4.50;;
18711;SDS011;9485;49.386;8.674;2023-08-24T23:22:15;4.93;;;4.53;;
18711;SDS011;9485;49.386;8.674;2023-08-24T23:27:38;5.85;;;4.78;;
18711;SDS011;9485;49.386;8.674;2023-08-24T23:32:59;4.90;;;4.50;;
18711;SDS011;9485;49.386;8.674;2023-08-24T23:38:20;3.88;;;3.53;;
18711;SDS011;9485;49.386;8.674;2023-08-24T23:43:43;3.85;;;3.50;;
18711;SDS011;9485;49.386;8.674;2023-08-24T23:49:06;3.60;;;3.30;;
18711;SDS011;9485;49.386;8.674;2023-08-24T23:54:28;5.40;;;3.58;;
18711;SDS011;9485;49.386;8.674;2023-08-24T23:59:49;4.10;;;3.63;;
